sensor_id;sensor_type;location;lat;lon;timestamp;temperature;humidity
11989;DHT22;6054;50.966;7.094;2023-07-13T00:00:55;28.50;33.10
11989;DHT22;6054;50.966;7.094;2023-07-13T00:03:23;28.50;33.70
11989;DHT22;6054;50.966;7.094;2023-07-13T00:06:02;28.50;33.80
11989;DHT22;6054;50.966;7.094;2023-07-13T00:08:32;28.40;34.90
11989;DHT22;6054;50.966;7.094;2023-07-13T00:11:03;28.20;34.80
11989;DHT22;6054;50.966;7.094;2023-07-13T00:13:34;28.10;34.80
11989;DHT22;6054;50.966;7.094;2023-07-13T00:16:04;28.40;34.70
11989;DHT22;6054;50.966;7.094;2023-07-13T00:18:32;28.20;34.60
11989;DHT22;6054;50.966;7.094;2023-07-13T00:21:00;28.20;34.60
11989;DHT22;6054;50.966;7.094;2023-07-13T00:23:32;28.10;34.70
11989;DHT22;6054;50.966;7.094;2023-07-13T00:26:01;28.10;35.90
11989;DHT22;6054;50.966;7.094;2023-07-13T00:28:44;28.10;34.90
11989;DHT22;6054;50.966;7.094;2023-07-13T00:31:13;28.00;34.00
11989;DHT22;6054;50.966;7.094;2023-07-13T00:33:43;28.10;35.30
11989;DHT22;6054;50.966;7.094;2023-07-13T00:36:12;27.90;35.50
11989;DHT22;6054;50.966;7.094;2023-07-13T00:38:40;28.00;34.90
11989;DHT22;6054;50.966;7.094;2023-07-13T00:41:08;28.00;35.60
11989;DHT22;6054;50.966;7.094;2023-07-13T00:43:37;27.90;35.30
11989;DHT22;6054;50.966;7.094;2023-07-13T00:46:27;27.90;34.30
11989;DHT22;6054;50.966;7.094;2023-07-13T00:48:57;27.90;37.60
11989;DHT22;6054;50.966;7.094;2023-07-13T00:51:31;27.80;36.00
11989;DHT22;6054;50.966;7.094;2023-07-13T00:54:14;27.50;36.80
11989;DHT22;6054;50.966;7.094;2023-07-13T00:56:45;27.50;37.00
11989;DHT22;6054;50.966;7.094;2023-07-13T00:59:19;27.70;36.90
11989;DHT22;6054;50.966;7.094;2023-07-13T01:01:54;27.40;37.80
11989;DHT22;6054;50.966;7.094;2023-07-13T01:04:26;27.60;36.10
11989;DHT22;6054;50.966;7.094;2023-07-13T01:06:54;27.70;36.90
11989;DHT22;6054;50.966;7.094;2023-07-13T01:09:27;27.50;36.80
11989;DHT22;6054;50.966;7.094;2023-07-13T01:11:58;27.60;38.90
11989;DHT22;6054;50.966;7.094;2023-07-13T01:14:26;27.40;36.90
11989;DHT22;6054;50.966;7.094;2023-07-13T01:16:57;27.30;36.60
11989;DHT22;6054;50.966;7.094;2023-07-13T01:19:32;27.60;37.40
11989;DHT22;6054;50.966;7.094;2023-07-13T01:22:04;27.30;38.60
11989;DHT22;6054;50.966;7.094;2023-07-13T01:24:35;27.50;37.20
11989;DHT22;6054;50.966;7.094;2023-07-13T01:27:05;27.30;38.40
11989;DHT22;6054;50.966;7.094;2023-07-13T01:29:35;27.20;38.00
11989;DHT22;6054;50.966;7.094;2023-07-13T01:32:09;27.40;38.10
11989;DHT22;6054;50.966;7.094;2023-07-13T01:34:38;27.20;36.80
11989;DHT22;6054;50.966;7.094;2023-07-13T01:37:09;27.20;36.00
11989;DHT22;6054;50.966;7.094;2023-07-13T01:39:37;27.10;37.30
11989;DHT22;6054;50.966;7.094;2023-07-13T01:42:06;27.00;36.30
11989;DHT22;6054;50.966;7.094;2023-07-13T01:44:33;27.10;37.20
11989;DHT22;6054;50.966;7.094;2023-07-13T01:47:03;27.10;37.50
11989;DHT22;6054;50.966;7.094;2023-07-13T01:49:31;27.10;37.60
11989;DHT22;6054;50.966;7.094;2023-07-13T01:51:59;27.10;37.60
11989;DHT22;6054;50.966;7.094;2023-07-13T01:54:28;27.00;36.60
11989;DHT22;6054;50.966;7.094;2023-07-13T01:57:12;27.00;36.30
11989;DHT22;6054;50.966;7.094;2023-07-13T02:00:04;27.00;39.60
11989;DHT22;6054;50.966;7.094;2023-07-13T02:02:37;26.90;38.60
11989;DHT22;6054;50.966;7.094;2023-07-13T02:05:06;26.90;36.00
11989;DHT22;6054;50.966;7.094;2023-07-13T02:07:34;26.90;39.40
11989;DHT22;6054;50.966;7.094;2023-07-13T02:10:04;26.90;37.80
11989;DHT22;6054;50.966;7.094;2023-07-13T02:12:31;26.80;39.40
11989;DHT22;6054;50.966;7.094;2023-07-13T02:14:59;26.90;36.90
11989;DHT22;6054;50.966;7.094;2023-07-13T02:17:27;26.70;36.70
11989;DHT22;6054;50.966;7.094;2023-07-13T02:19:56;26.70;37.80
11989;DHT22;6054;50.966;7.094;2023-07-13T02:22:34;26.70;37.40
11989;DHT22;6054;50.966;7.094;2023-07-13T02:25:06;26.60;37.80
11989;DHT22;6054;50.966;7.094;2023-07-13T02:27:34;26.60;40.40
11989;DHT22;6054;50.966;7.094;2023-07-13T02:30:02;26.60;37.90
11989;DHT22;6054;50.966;7.094;2023-07-13T02:32:30;26.50;39.50
11989;DHT22;6054;50.966;7.094;2023-07-13T02:34:58;26.50;38.50
11989;DHT22;6054;50.966;7.094;2023-07-13T02:37:25;26.30;39.00
11989;DHT22;6054;50.966;7.094;2023-07-13T02:39:53;26.40;39.30
11989;DHT22;6054;50.966;7.094;2023-07-13T02:42:26;26.50;40.00
11989;DHT22;6054;50.966;7.094;2023-07-13T02:44:54;26.40;39.30
11989;DHT22;6054;50.966;7.094;2023-07-13T02:47:28;26.20;38.60
11989;DHT22;6054;50.966;7.094;2023-07-13T02:50:00;26.20;39.40
11989;DHT22;6054;50.966;7.094;2023-07-13T02:52:27;26.40;39.80
11989;DHT22;6054;50.966;7.094;2023-07-13T02:54:58;26.30;38.50
11989;DHT22;6054;50.966;7.094;2023-07-13T02:57:28;26.00;42.10
11989;DHT22;6054;50.966;7.094;2023-07-13T02:59:56;26.20;39.80
11989;DHT22;6054;50.966;7.094;2023-07-13T03:02:37;26.20;40.10
11989;DHT22;6054;50.966;7.094;2023-07-13T03:05:05;26.40;40.30
11989;DHT22;6054;50.966;7.094;2023-07-13T03:07:38;26.00;40.60
11989;DHT22;6054;50.966;7.094;2023-07-13T03:10:07;26.00;40.40
11989;DHT22;6054;50.966;7.094;2023-07-13T03:12:38;25.80;41.40
11989;DHT22;6054;50.966;7.094;2023-07-13T03:15:07;26.00;40.60
11989;DHT22;6054;50.966;7.094;2023-07-13T03:17:37;25.90;40.70
11989;DHT22;6054;50.966;7.094;2023-07-13T03:20:08;25.90;42.90
11989;DHT22;6054;50.966;7.094;2023-07-13T03:22:41;25.80;41.40
11989;DHT22;6054;50.966;7.094;2023-07-13T03:25:09;25.80;43.30
11989;DHT22;6054;50.966;7.094;2023-07-13T03:27:41;25.90;40.10
11989;DHT22;6054;50.966;7.094;2023-07-13T03:30:09;25.80;40.30
11989;DHT22;6054;50.966;7.094;2023-07-13T03:32:39;25.80;41.70
11989;DHT22;6054;50.966;7.094;2023-07-13T03:35:07;25.80;41.40
11989;DHT22;6054;50.966;7.094;2023-07-13T03:37:35;25.70;42.60
11989;DHT22;6054;50.966;7.094;2023-07-13T03:40:08;25.70;40.50
11989;DHT22;6054;50.966;7.094;2023-07-13T03:42:35;25.60;42.00
11989;DHT22;6054;50.966;7.094;2023-07-13T03:45:04;25.60;42.00
11989;DHT22;6054;50.966;7.094;2023-07-13T03:47:31;25.60;43.00
11989;DHT22;6054;50.966;7.094;2023-07-13T03:49:58;25.60;41.80
11989;DHT22;6054;50.966;7.094;2023-07-13T03:52:25;25.60;42.30
11989;DHT22;6054;50.966;7.094;2023-07-13T03:54:52;25.50;42.20
11989;DHT22;6054;50.966;7.094;2023-07-13T03:57:19;25.50;42.40
11989;DHT22;6054;50.966;7.094;2023-07-13T03:59:46;25.80;42.60
11989;DHT22;6054;50.966;7.094;2023-07-13T04:02:14;25.50;42.10
11989;DHT22;6054;50.966;7.094;2023-07-13T04:04:40;25.50;42.00
11989;DHT22;6054;50.966;7.094;2023-07-13T04:07:07;25.70;42.20
11989;DHT22;6054;50.966;7.094;2023-07-13T04:09:34;25.40;42.10
11989;DHT22;6054;50.966;7.094;2023-07-13T04:12:01;25.60;42.30
11989;DHT22;6054;50.966;7.094;2023-07-13T04:14:28;25.40;42.20
11989;DHT22;6054;50.966;7.094;2023-07-13T04:16:55;25.50;42.30
11989;DHT22;6054;50.966;7.094;2023-07-13T04:19:23;25.40;42.20
11989;DHT22;6054;50.966;7.094;2023-07-13T04:21:50;25.50;42.70
11989;DHT22;6054;50.966;7.094;2023-07-13T04:24:16;25.50;42.50
11989;DHT22;6054;50.966;7.094;2023-07-13T04:26:44;25.50;42.80
11989;DHT22;6054;50.966;7.094;2023-07-13T04:29:11;25.50;42.90
11989;DHT22;6054;50.966;7.094;2023-07-13T04:31:38;25.50;42.60
11989;DHT22;6054;50.966;7.094;2023-07-13T04:34:04;25.50;43.00
11989;DHT22;6054;50.966;7.094;2023-07-13T04:36:32;25.60;43.00
11989;DHT22;6054;50.966;7.094;2023-07-13T04:39:03;25.60;42.40
11989;DHT22;6054;50.966;7.094;2023-07-13T04:41:29;25.60;42.40
11989;DHT22;6054;50.966;7.094;2023-07-13T04:43:56;25.60;42.60
11989;DHT22;6054;50.966;7.094;2023-07-13T04:46:23;25.80;42.60
11989;DHT22;6054;50.966;7.094;2023-07-13T04:48:50;25.70;42.30
11989;DHT22;6054;50.966;7.094;2023-07-13T04:51:18;25.70;42.70
11989;DHT22;6054;50.966;7.094;2023-07-13T04:53:46;25.70;42.70
11989;DHT22;6054;50.966;7.094;2023-07-13T04:56:13;25.90;42.00
11989;DHT22;6054;50.966;7.094;2023-07-13T04:58:40;25.80;41.90
11989;DHT22;6054;50.966;7.094;2023-07-13T05:01:07;26.10;41.70
11989;DHT22;6054;50.966;7.094;2023-07-13T05:03:34;26.10;42.10
11989;DHT22;6054;50.966;7.094;2023-07-13T05:06:03;25.90;42.50
11989;DHT22;6054;50.966;7.094;2023-07-13T05:08:30;26.00;42.90
11989;DHT22;6054;50.966;7.094;2023-07-13T05:11:00;26.00;42.30
11989;DHT22;6054;50.966;7.094;2023-07-13T05:13:28;26.30;43.00
11989;DHT22;6054;50.966;7.094;2023-07-13T05:15:59;26.30;42.10
11989;DHT22;6054;50.966;7.094;2023-07-13T05:18:26;26.10;42.10
11989;DHT22;6054;50.966;7.094;2023-07-13T05:21:01;26.20;42.00
11989;DHT22;6054;50.966;7.094;2023-07-13T05:23:30;26.20;42.10
11989;DHT22;6054;50.966;7.094;2023-07-13T05:25:57;26.30;42.30
11989;DHT22;6054;50.966;7.094;2023-07-13T05:28:25;26.40;41.80
11989;DHT22;6054;50.966;7.094;2023-07-13T05:30:52;26.50;42.00
11989;DHT22;6054;50.966;7.094;2023-07-13T05:33:20;26.40;41.90
11989;DHT22;6054;50.966;7.094;2023-07-13T05:35:52;26.60;41.20
11989;DHT22;6054;50.966;7.094;2023-07-13T05:38:19;26.60;42.30
11989;DHT22;6054;50.966;7.094;2023-07-13T05:40:47;26.60;41.80
11989;DHT22;6054;50.966;7.094;2023-07-13T05:43:14;26.60;42.40
11989;DHT22;6054;50.966;7.094;2023-07-13T05:45:42;26.70;42.70
11989;DHT22;6054;50.966;7.094;2023-07-13T05:48:09;26.70;41.70
11989;DHT22;6054;50.966;7.094;2023-07-13T05:50:36;27.00;41.60
11989;DHT22;6054;50.966;7.094;2023-07-13T05:53:03;26.70;41.90
11989;DHT22;6054;50.966;7.094;2023-07-13T05:55:30;26.80;41.70
11989;DHT22;6054;50.966;7.094;2023-07-13T05:57:57;26.90;41.30
11989;DHT22;6054;50.966;7.094;2023-07-13T06:00:24;26.80;41.80
11989;DHT22;6054;50.966;7.094;2023-07-13T06:02:53;26.80;41.80
11989;DHT22;6054;50.966;7.094;2023-07-13T06:05:19;26.80;41.10
11989;DHT22;6054;50.966;7.094;2023-07-13T06:07:46;26.80;41.70
11989;DHT22;6054;50.966;7.094;2023-07-13T06:10:13;27.10;41.60
11989;DHT22;6054;50.966;7.094;2023-07-13T06:12:40;26.90;41.00
11989;DHT22;6054;50.966;7.094;2023-07-13T06:15:07;26.90;39.80
11989;DHT22;6054;50.966;7.094;2023-07-13T06:17:34;27.00;41.80
11989;DHT22;6054;50.966;7.094;2023-07-13T06:20:03;27.00;41.30
11989;DHT22;6054;50.966;7.094;2023-07-13T06:22:30;27.00;41.90
11989;DHT22;6054;50.966;7.094;2023-07-13T06:24:57;27.10;41.10
11989;DHT22;6054;50.966;7.094;2023-07-13T06:27:24;27.00;40.50
11989;DHT22;6054;50.966;7.094;2023-07-13T06:29:50;27.00;40.90
11989;DHT22;6054;50.966;7.094;2023-07-13T06:32:17;27.00;40.90
11989;DHT22;6054;50.966;7.094;2023-07-13T06:34:44;27.10;40.90
11989;DHT22;6054;50.966;7.094;2023-07-13T06:37:12;27.20;41.40
11989;DHT22;6054;50.966;7.094;2023-07-13T06:39:39;27.00;41.50
11989;DHT22;6054;50.966;7.094;2023-07-13T06:42:06;27.00;41.10
11989;DHT22;6054;50.966;7.094;2023-07-13T06:44:33;27.00;42.00
11989;DHT22;6054;50.966;7.094;2023-07-13T06:47:00;27.10;42.00
11989;DHT22;6054;50.966;7.094;2023-07-13T06:49:26;27.10;41.80
11989;DHT22;6054;50.966;7.094;2023-07-13T06:51:54;27.10;42.00
11989;DHT22;6054;50.966;7.094;2023-07-13T06:54:22;27.10;42.10
11989;DHT22;6054;50.966;7.094;2023-07-13T06:56:49;27.20;41.70
11989;DHT22;6054;50.966;7.094;2023-07-13T06:59:15;27.40;41.70
11989;DHT22;6054;50.966;7.094;2023-07-13T07:01:42;27.30;41.60
11989;DHT22;6054;50.966;7.094;2023-07-13T07:04:09;27.30;41.40
11989;DHT22;6054;50.966;7.094;2023-07-13T07:06:36;27.50;41.70
11989;DHT22;6054;50.966;7.094;2023-07-13T07:09:03;27.60;41.70
11989;DHT22;6054;50.966;7.094;2023-07-13T07:11:31;27.60;42.30
11989;DHT22;6054;50.966;7.094;2023-07-13T07:13:58;27.80;41.10
11989;DHT22;6054;50.966;7.094;2023-07-13T07:16:25;27.70;41.00
11989;DHT22;6054;50.966;7.094;2023-07-13T07:18:52;27.90;41.90
11989;DHT22;6054;50.966;7.094;2023-07-13T07:21:19;27.70;41.30
11989;DHT22;6054;50.966;7.094;2023-07-13T07:23:48;27.90;41.40
11989;DHT22;6054;50.966;7.094;2023-07-13T07:26:15;27.70;41.70
11989;DHT22;6054;50.966;7.094;2023-07-13T07:28:43;28.00;41.60
11989;DHT22;6054;50.966;7.094;2023-07-13T07:31:10;27.80;41.00
11989;DHT22;6054;50.966;7.094;2023-07-13T07:33:37;28.00;41.50
11989;DHT22;6054;50.966;7.094;2023-07-13T07:36:04;28.20;41.10
11989;DHT22;6054;50.966;7.094;2023-07-13T07:38:31;28.10;39.90
11989;DHT22;6054;50.966;7.094;2023-07-13T07:40:57;28.20;40.30
11989;DHT22;6054;50.966;7.094;2023-07-13T07:43:24;28.40;40.60
11989;DHT22;6054;50.966;7.094;2023-07-13T07:45:52;28.30;40.70
11989;DHT22;6054;50.966;7.094;2023-07-13T07:48:19;28.40;40.90
11989;DHT22;6054;50.966;7.094;2023-07-13T07:50:46;28.40;40.60
11989;DHT22;6054;50.966;7.094;2023-07-13T07:53:13;28.70;40.30
11989;DHT22;6054;50.966;7.094;2023-07-13T07:55:40;28.50;40.00
11989;DHT22;6054;50.966;7.094;2023-07-13T07:58:07;28.60;40.30
11989;DHT22;6054;50.966;7.094;2023-07-13T08:00:34;28.70;40.30
11989;DHT22;6054;50.966;7.094;2023-07-13T08:03:02;28.70;39.70
11989;DHT22;6054;50.966;7.094;2023-07-13T08:05:30;28.70;39.70
11989;DHT22;6054;50.966;7.094;2023-07-13T08:07:57;28.70;39.90
11989;DHT22;6054;50.966;7.094;2023-07-13T08:10:23;28.80;40.00
11989;DHT22;6054;50.966;7.094;2023-07-13T08:12:50;28.80;39.90
11989;DHT22;6054;50.966;7.094;2023-07-13T08:15:17;28.90;39.70
11989;DHT22;6054;50.966;7.094;2023-07-13T08:17:46;28.90;39.70
11989;DHT22;6054;50.966;7.094;2023-07-13T08:20:14;29.20;40.30
11989;DHT22;6054;50.966;7.094;2023-07-13T08:22:41;29.10;39.70
11989;DHT22;6054;50.966;7.094;2023-07-13T08:25:08;29.30;39.50
11989;DHT22;6054;50.966;7.094;2023-07-13T08:27:35;29.40;39.50
11989;DHT22;6054;50.966;7.094;2023-07-13T08:30:02;29.60;39.50
11989;DHT22;6054;50.966;7.094;2023-07-13T08:32:31;29.40;40.10
11989;DHT22;6054;50.966;7.094;2023-07-13T08:34:58;29.50;39.60
11989;DHT22;6054;50.966;7.094;2023-07-13T08:37:26;29.60;39.50
11989;DHT22;6054;50.966;7.094;2023-07-13T08:39:52;29.80;38.80
11989;DHT22;6054;50.966;7.094;2023-07-13T08:42:31;29.80;38.60
11989;DHT22;6054;50.966;7.094;2023-07-13T08:45:07;29.80;39.10
11989;DHT22;6054;50.966;7.094;2023-07-13T08:47:39;29.90;38.60
11989;DHT22;6054;50.966;7.094;2023-07-13T08:50:11;29.90;38.50
11989;DHT22;6054;50.966;7.094;2023-07-13T08:52:41;30.00;38.90
11989;DHT22;6054;50.966;7.094;2023-07-13T08:55:13;30.10;38.70
11989;DHT22;6054;50.966;7.094;2023-07-13T08:57:41;30.10;38.90
11989;DHT22;6054;50.966;7.094;2023-07-13T09:00:10;30.10;38.70
11989;DHT22;6054;50.966;7.094;2023-07-13T09:02:43;30.10;38.40
11989;DHT22;6054;50.966;7.094;2023-07-13T09:05:14;30.20;38.10
11989;DHT22;6054;50.966;7.094;2023-07-13T09:07:57;30.30;37.90
11989;DHT22;6054;50.966;7.094;2023-07-13T09:10:29;30.30;38.40
11989;DHT22;6054;50.966;7.094;2023-07-13T09:13:07;30.50;38.10
11989;DHT22;6054;50.966;7.094;2023-07-13T09:15:41;30.30;37.70
11989;DHT22;6054;50.966;7.094;2023-07-13T09:18:11;30.60;37.90
11989;DHT22;6054;50.966;7.094;2023-07-13T09:20:44;30.40;37.90
11989;DHT22;6054;50.966;7.094;2023-07-13T09:23:15;30.60;37.70
11989;DHT22;6054;50.966;7.094;2023-07-13T09:25:45;30.40;37.60
11989;DHT22;6054;50.966;7.094;2023-07-13T09:28:16;30.60;37.70
11989;DHT22;6054;50.966;7.094;2023-07-13T09:30:49;30.40;37.40
11989;DHT22;6054;50.966;7.094;2023-07-13T09:33:18;30.60;37.40
11989;DHT22;6054;50.966;7.094;2023-07-13T09:35:45;30.50;37.10
11989;DHT22;6054;50.966;7.094;2023-07-13T09:38:15;30.50;35.70
11989;DHT22;6054;50.966;7.094;2023-07-13T09:40:51;30.40;36.80
11989;DHT22;6054;50.966;7.094;2023-07-13T09:43:20;30.50;37.30
11989;DHT22;6054;50.966;7.094;2023-07-13T09:45:47;30.50;37.40
11989;DHT22;6054;50.966;7.094;2023-07-13T09:48:16;30.70;37.10
11989;DHT22;6054;50.966;7.094;2023-07-13T09:50:44;30.60;37.40
11989;DHT22;6054;50.966;7.094;2023-07-13T09:53:13;30.60;36.40
11989;DHT22;6054;50.966;7.094;2023-07-13T09:55:42;30.70;36.30
11989;DHT22;6054;50.966;7.094;2023-07-13T09:58:12;30.70;36.30
11989;DHT22;6054;50.966;7.094;2023-07-13T10:00:40;30.70;36.30
11989;DHT22;6054;50.966;7.094;2023-07-13T10:03:17;30.70;36.00
11989;DHT22;6054;50.966;7.094;2023-07-13T10:05:46;30.80;36.10
11989;DHT22;6054;50.966;7.094;2023-07-13T10:08:27;30.80;35.90
11989;DHT22;6054;50.966;7.094;2023-07-13T10:11:00;31.00;36.50
11989;DHT22;6054;50.966;7.094;2023-07-13T10:13:34;30.90;36.00
11989;DHT22;6054;50.966;7.094;2023-07-13T10:16:02;31.00;35.70
11989;DHT22;6054;50.966;7.094;2023-07-13T10:18:39;31.10;35.80
11989;DHT22;6054;50.966;7.094;2023-07-13T10:21:14;31.20;35.50
11989;DHT22;6054;50.966;7.094;2023-07-13T10:23:43;31.30;35.60
11989;DHT22;6054;50.966;7.094;2023-07-13T10:26:15;31.50;34.70
11989;DHT22;6054;50.966;7.094;2023-07-13T10:28:45;31.40;34.50
11989;DHT22;6054;50.966;7.094;2023-07-13T10:31:15;31.30;34.60
11989;DHT22;6054;50.966;7.094;2023-07-13T10:33:43;31.40;34.50
11989;DHT22;6054;50.966;7.094;2023-07-13T10:36:17;31.50;34.40
11989;DHT22;6054;50.966;7.094;2023-07-13T10:38:50;31.50;34.60
11989;DHT22;6054;50.966;7.094;2023-07-13T10:41:20;31.50;34.00
11989;DHT22;6054;50.966;7.094;2023-07-13T10:43:50;31.60;33.90
11989;DHT22;6054;50.966;7.094;2023-07-13T10:46:19;31.70;33.90
11989;DHT22;6054;50.966;7.094;2023-07-13T10:48:49;31.70;33.90
11989;DHT22;6054;50.966;7.094;2023-07-13T10:51:18;31.80;33.80
11989;DHT22;6054;50.966;7.094;2023-07-13T10:54:14;31.80;33.70
11989;DHT22;6054;50.966;7.094;2023-07-13T10:56:42;31.80;33.90
11989;DHT22;6054;50.966;7.094;2023-07-13T10:59:12;31.80;34.00
11989;DHT22;6054;50.966;7.094;2023-07-13T11:01:49;31.80;33.90
11989;DHT22;6054;50.966;7.094;2023-07-13T11:04:18;31.80;34.60
11989;DHT22;6054;50.966;7.094;2023-07-13T11:06:48;31.80;33.60
11989;DHT22;6054;50.966;7.094;2023-07-13T11:09:35;31.80;34.10
11989;DHT22;6054;50.966;7.094;2023-07-13T11:12:07;31.90;34.00
11989;DHT22;6054;50.966;7.094;2023-07-13T11:14:37;31.80;33.50
11989;DHT22;6054;50.966;7.094;2023-07-13T11:17:35;31.80;33.50
11989;DHT22;6054;50.966;7.094;2023-07-13T11:20:19;31.80;33.70
11989;DHT22;6054;50.966;7.094;2023-07-13T11:22:48;31.90;33.90
11989;DHT22;6054;50.966;7.094;2023-07-13T11:25:28;32.10;33.80
11989;DHT22;6054;50.966;7.094;2023-07-13T11:28:14;31.90;33.50
11989;DHT22;6054;50.966;7.094;2023-07-13T11:30:44;32.00;33.40
11989;DHT22;6054;50.966;7.094;2023-07-13T11:33:16;32.00;33.40
11989;DHT22;6054;50.966;7.094;2023-07-13T11:35:52;31.90;33.70
11989;DHT22;6054;50.966;7.094;2023-07-13T11:38:21;31.90;33.90
11989;DHT22;6054;50.966;7.094;2023-07-13T11:40:52;32.00;33.90
11989;DHT22;6054;50.966;7.094;2023-07-13T11:43:20;32.00;34.10
11989;DHT22;6054;50.966;7.094;2023-07-13T11:45:49;32.00;33.90
11989;DHT22;6054;50.966;7.094;2023-07-13T11:48:20;32.00;33.90
11989;DHT22;6054;50.966;7.094;2023-07-13T11:50:53;31.90;34.10
11989;DHT22;6054;50.966;7.094;2023-07-13T11:53:20;32.00;34.20
11989;DHT22;6054;50.966;7.094;2023-07-13T11:55:47;32.00;33.90
11989;DHT22;6054;50.966;7.094;2023-07-13T11:58:19;32.00;33.80
11989;DHT22;6054;50.966;7.094;2023-07-13T12:00:47;32.00;34.00
11989;DHT22;6054;50.966;7.094;2023-07-13T12:03:18;32.10;33.80
11989;DHT22;6054;50.966;7.094;2023-07-13T12:05:59;32.00;33.50
11989;DHT22;6054;50.966;7.094;2023-07-13T12:08:26;32.00;33.40
11989;DHT22;6054;50.966;7.094;2023-07-13T12:11:03;32.00;33.00
11989;DHT22;6054;50.966;7.094;2023-07-13T12:13:37;32.00;33.40
11989;DHT22;6054;50.966;7.094;2023-07-13T12:16:12;32.20;33.30
11989;DHT22;6054;50.966;7.094;2023-07-13T12:18:39;32.10;33.70
11989;DHT22;6054;50.966;7.094;2023-07-13T12:21:12;32.10;33.10
11989;DHT22;6054;50.966;7.094;2023-07-13T12:23:39;32.00;33.20
11989;DHT22;6054;50.966;7.094;2023-07-13T12:26:09;32.30;33.00
11989;DHT22;6054;50.966;7.094;2023-07-13T12:28:44;32.10;32.70
11989;DHT22;6054;50.966;7.094;2023-07-13T12:31:24;32.10;32.90
11989;DHT22;6054;50.966;7.094;2023-07-13T12:33:57;32.20;32.80
11989;DHT22;6054;50.966;7.094;2023-07-13T12:36:24;32.10;32.90
11989;DHT22;6054;50.966;7.094;2023-07-13T12:38:51;32.10;31.90
11989;DHT22;6054;50.966;7.094;2023-07-13T12:41:18;32.10;31.90
11989;DHT22;6054;50.966;7.094;2023-07-13T12:43:47;32.10;32.20
11989;DHT22;6054;50.966;7.094;2023-07-13T12:46:18;32.20;31.70
11989;DHT22;6054;50.966;7.094;2023-07-13T12:48:49;32.20;32.50
11989;DHT22;6054;50.966;7.094;2023-07-13T12:51:17;32.20;32.20
11989;DHT22;6054;50.966;7.094;2023-07-13T12:53:48;32.20;31.80
11989;DHT22;6054;50.966;7.094;2023-07-13T12:56:19;32.20;31.90
11989;DHT22;6054;50.966;7.094;2023-07-13T12:58:52;32.20;31.70
11989;DHT22;6054;50.966;7.094;2023-07-13T13:01:21;32.20;31.90
11989;DHT22;6054;50.966;7.094;2023-07-13T13:03:50;32.40;32.00
11989;DHT22;6054;50.966;7.094;2023-07-13T13:06:22;32.30;31.90
11989;DHT22;6054;50.966;7.094;2023-07-13T13:08:52;32.30;31.80
11989;DHT22;6054;50.966;7.094;2023-07-13T13:11:20;32.50;31.80
11989;DHT22;6054;50.966;7.094;2023-07-13T13:13:50;32.40;31.60
11989;DHT22;6054;50.966;7.094;2023-07-13T13:16:20;32.50;31.40
11989;DHT22;6054;50.966;7.094;2023-07-13T13:18:48;32.60;31.60
11989;DHT22;6054;50.966;7.094;2023-07-13T13:21:15;32.50;30.90
11989;DHT22;6054;50.966;7.094;2023-07-13T13:23:42;32.50;30.50
11989;DHT22;6054;50.966;7.094;2023-07-13T13:26:10;32.60;30.60
11989;DHT22;6054;50.966;7.094;2023-07-13T13:28:38;32.60;31.00
11989;DHT22;6054;50.966;7.094;2023-07-13T13:31:08;32.70;30.70
11989;DHT22;6054;50.966;7.094;2023-07-13T13:33:38;32.80;30.10
11989;DHT22;6054;50.966;7.094;2023-07-13T13:36:13;32.80;31.00
11989;DHT22;6054;50.966;7.094;2023-07-13T13:38:41;32.80;30.90
11989;DHT22;6054;50.966;7.094;2023-07-13T13:41:09;32.80;30.30
11989;DHT22;6054;50.966;7.094;2023-07-13T13:43:36;33.00;31.10
11989;DHT22;6054;50.966;7.094;2023-07-13T13:46:13;32.90;30.70
11989;DHT22;6054;50.966;7.094;2023-07-13T13:48:40;32.90;31.10
11989;DHT22;6054;50.966;7.094;2023-07-13T13:51:14;32.90;29.80
11989;DHT22;6054;50.966;7.094;2023-07-13T13:53:41;33.00;29.90
11989;DHT22;6054;50.966;7.094;2023-07-13T13:56:09;33.00;30.00
11989;DHT22;6054;50.966;7.094;2023-07-13T13:58:36;33.00;29.50
11989;DHT22;6054;50.966;7.094;2023-07-13T14:01:02;33.00;29.50
11989;DHT22;6054;50.966;7.094;2023-07-13T14:03:33;33.30;29.90
11989;DHT22;6054;50.966;7.094;2023-07-13T14:05:59;33.00;29.80
11989;DHT22;6054;50.966;7.094;2023-07-13T14:08:26;33.20;29.70
11989;DHT22;6054;50.966;7.094;2023-07-13T14:10:56;33.10;29.60
11989;DHT22;6054;50.966;7.094;2023-07-13T14:13:26;33.20;30.20
11989;DHT22;6054;50.966;7.094;2023-07-13T14:15:54;33.00;30.30
11989;DHT22;6054;50.966;7.094;2023-07-13T14:18:21;33.10;30.30
11989;DHT22;6054;50.966;7.094;2023-07-13T14:20:50;33.10;29.90
11989;DHT22;6054;50.966;7.094;2023-07-13T14:23:18;33.10;28.50
11989;DHT22;6054;50.966;7.094;2023-07-13T14:25:45;33.10;29.10
11989;DHT22;6054;50.966;7.094;2023-07-13T14:28:21;33.10;29.60
11989;DHT22;6054;50.966;7.094;2023-07-13T14:30:50;33.20;29.80
11989;DHT22;6054;50.966;7.094;2023-07-13T14:33:17;33.10;29.80
11989;DHT22;6054;50.966;7.094;2023-07-13T14:35:44;33.20;29.70
11989;DHT22;6054;50.966;7.094;2023-07-13T14:38:15;33.10;29.30
11989;DHT22;6054;50.966;7.094;2023-07-13T14:40:43;33.10;30.00
11989;DHT22;6054;50.966;7.094;2023-07-13T14:43:11;33.20;29.50
11989;DHT22;6054;50.966;7.094;2023-07-13T14:45:40;33.10;29.70
11989;DHT22;6054;50.966;7.094;2023-07-13T14:48:14;33.20;29.90
11989;DHT22;6054;50.966;7.094;2023-07-13T14:50:41;33.20;30.30
11989;DHT22;6054;50.966;7.094;2023-07-13T14:53:11;33.20;29.80
11989;DHT22;6054;50.966;7.094;2023-07-13T14:55:38;33.20;29.80
11989;DHT22;6054;50.966;7.094;2023-07-13T14:58:06;33.30;29.20
11989;DHT22;6054;50.966;7.094;2023-07-13T15:00:33;33.40;29.50
11989;DHT22;6054;50.966;7.094;2023-07-13T15:03:00;33.40;29.40
11989;DHT22;6054;50.966;7.094;2023-07-13T15:05:30;33.50;29.70
11989;DHT22;6054;50.966;7.094;2023-07-13T15:07:58;33.50;29.50
11989;DHT22;6054;50.966;7.094;2023-07-13T15:10:28;33.40;29.20
11989;DHT22;6054;50.966;7.094;2023-07-13T15:12:59;33.40;29.60
11989;DHT22;6054;50.966;7.094;2023-07-13T15:15:28;33.30;29.60
11989;DHT22;6054;50.966;7.094;2023-07-13T15:17:56;33.50;29.50
11989;DHT22;6054;50.966;7.094;2023-07-13T15:20:26;33.30;29.10
11989;DHT22;6054;50.966;7.094;2023-07-13T15:22:54;33.20;29.50
11989;DHT22;6054;50.966;7.094;2023-07-13T15:25:23;33.20;29.00
11989;DHT22;6054;50.966;7.094;2023-07-13T15:27:53;33.20;29.60
11989;DHT22;6054;50.966;7.094;2023-07-13T15:30:20;33.20;29.90
11989;DHT22;6054;50.966;7.094;2023-07-13T15:32:48;33.20;29.80
11989;DHT22;6054;50.966;7.094;2023-07-13T15:35:17;33.30;29.70
11989;DHT22;6054;50.966;7.094;2023-07-13T15:37:44;33.40;28.90
11989;DHT22;6054;50.966;7.094;2023-07-13T15:40:12;33.50;28.40
11989;DHT22;6054;50.966;7.094;2023-07-13T15:42:39;33.60;28.50
11989;DHT22;6054;50.966;7.094;2023-07-13T15:45:17;33.60;28.40
11989;DHT22;6054;50.966;7.094;2023-07-13T15:47:45;33.60;28.20
11989;DHT22;6054;50.966;7.094;2023-07-13T15:50:13;33.60;28.00
11989;DHT22;6054;50.966;7.094;2023-07-13T15:52:41;33.60;28.80
11989;DHT22;6054;50.966;7.094;2023-07-13T15:55:10;33.60;28.90
11989;DHT22;6054;50.966;7.094;2023-07-13T15:57:38;33.60;29.00
11989;DHT22;6054;50.966;7.094;2023-07-13T16:00:16;33.50;28.90